sensor_id;sensor_type;location;lat;lon;timestamp;P1;durP1;ratioP1;P2;durP2;ratioP2
76731;SDS011;65656;51.130;13.658;2023-02-15T00:00:53;56.10;;;31.52;;
76731;SDS011;65656;51.130;13.658;2023-02-15T00:04:56;43.95;;;26.30;;
76731;SDS011;65656;51.130;13.658;2023-02-15T00:08:57;54.33;;;26.38;;
76731;SDS011;65656;51.130;13.658;2023-02-15T00:12:59;49.45;;;36.88;;
76731;SDS011;65656;51.130;13.658;2023-02-15T00:17:01;52.00;;;32.47;;
76731;SDS011;65656;51.130;13.658;2023-02-15T00:21:04;51.47;;;29.63;;
76731;SDS011;65656;51.130;13.658;2023-02-15T00:25:07;57.72;;;34.13;;
76731;SDS011;65656;51.130;13.658;2023-02-15T00:29:09;49.88;;;34.20;;
76731;SDS011;65656;51.130;13.658;2023-02-15T00:33:11;41.92;;;31.17;;
76731;SDS011;65656;51.130;13.658;2023-02-15T00:37:14;51.85;;;35.88;;
76731;SDS011;65656;51.130;13.658;2023-02-15T00:41:16;51.75;;;33.78;;
76731;SDS011;65656;51.130;13.658;2023-02-15T00:45:17;50.40;;;41.85;;
76731;SDS011;65656;51.130;13.658;2023-02-15T00:49:19;54.33;;;27.75;;
76731;SDS011;65656;51.130;13.658;2023-02-15T00:53:21;47.50;;;29.75;;
76731;SDS011;65656;51.130;13.658;2023-02-15T00:57:23;47.53;;;30.27;;
76731;SDS011;65656;51.130;13.658;2023-02-15T01:01:24;51.25;;;40.40;;
76731;SDS011;65656;51.130;13.658;2023-02-15T01:05:26;52.80;;;37.38;;
76731;SDS011;65656;51.130;13.658;2023-02-15T01:09:29;44.35;;;27.65;;
76731;SDS011;65656;51.130;13.658;2023-02-15T01:13:30;47.05;;;42.35;;
76731;SDS011;65656;51.130;13.658;2023-02-15T01:17:32;50.85;;;37.35;;
76731;SDS011;65656;51.130;13.658;2023-02-15T01:21:34;50.53;;;37.85;;
76731;SDS011;65656;51.130;13.658;2023-02-15T01:25:37;50.80;;;34.05;;
76731;SDS011;65656;51.130;13.658;2023-02-15T01:29:38;48.72;;;28.98;;
76731;SDS011;65656;51.130;13.658;2023-02-15T01:33:40;49.15;;;30.85;;
76731;SDS011;65656;51.130;13.658;2023-02-15T01:37:41;50.30;;;37.03;;
76731;SDS011;65656;51.130;13.658;2023-02-15T01:41:44;41.35;;;29.23;;
76731;SDS011;65656;51.130;13.658;2023-02-15T01:45:46;47.70;;;29.13;;
76731;SDS011;65656;51.130;13.658;2023-02-15T01:49:51;46.60;;;33.42;;
76731;SDS011;65656;51.130;13.658;2023-02-15T01:54:01;48.45;;;35.33;;
76731;SDS011;65656;51.130;13.658;2023-02-15T01:58:08;50.80;;;29.60;;
76731;SDS011;65656;51.130;13.658;2023-02-15T02:02:11;46.05;;;27.63;;
76731;SDS011;65656;51.130;13.658;2023-02-15T02:06:16;36.78;;;31.65;;
76731;SDS011;65656;51.130;13.658;2023-02-15T02:10:19;49.42;;;35.67;;
76731;SDS011;65656;51.130;13.658;2023-02-15T02:14:24;55.83;;;33.75;;
76731;SDS011;65656;51.130;13.658;2023-02-15T02:18:32;47.38;;;32.25;;
76731;SDS011;65656;51.130;13.658;2023-02-15T02:22:53;38.67;;;34.55;;
76731;SDS011;65656;51.130;13.658;2023-02-15T02:27:20;46.42;;;36.63;;
76731;SDS011;65656;51.130;13.658;2023-02-15T02:31:44;45.90;;;29.88;;
76731;SDS011;65656;51.130;13.658;2023-02-15T02:36:11;48.55;;;33.97;;
76731;SDS011;65656;51.130;13.658;2023-02-15T02:40:18;53.03;;;33.03;;
76731;SDS011;65656;51.130;13.658;2023-02-15T02:44:22;52.25;;;34.10;;
76731;SDS011;65656;51.130;13.658;2023-02-15T02:48:30;57.92;;;38.03;;
76731;SDS011;65656;51.130;13.658;2023-02-15T02:52:36;34.15;;;21.73;;
76731;SDS011;65656;51.130;13.658;2023-02-15T02:56:41;45.67;;;25.85;;
76731;SDS011;65656;51.130;13.658;2023-02-15T03:00:48;49.33;;;39.38;;
76731;SDS011;65656;51.130;13.658;2023-02-15T03:04:55;55.10;;;34.38;;
76731;SDS011;65656;51.130;13.658;2023-02-15T03:09:05;54.03;;;34.70;;
76731;SDS011;65656;51.130;13.658;2023-02-15T03:13:11;47.72;;;35.30;;
76731;SDS011;65656;51.130;13.658;2023-02-15T03:17:13;53.67;;;41.80;;
76731;SDS011;65656;51.130;13.658;2023-02-15T03:21:16;45.20;;;26.63;;
76731;SDS011;65656;51.130;13.658;2023-02-15T03:25:20;44.20;;;24.55;;
76731;SDS011;65656;51.130;13.658;2023-02-15T03:29:25;42.58;;;29.90;;
76731;SDS011;65656;51.130;13.658;2023-02-15T03:33:28;45.92;;;33.13;;
76731;SDS011;65656;51.130;13.658;2023-02-15T03:37:32;38.80;;;24.52;;
76731;SDS011;65656;51.130;13.658;2023-02-15T03:45:44;40.25;;;29.10;;
76731;SDS011;65656;51.130;13.658;2023-02-15T03:49:50;38.60;;;23.77;;
76731;SDS011;65656;51.130;13.658;2023-02-15T03:53:54;39.92;;;35.97;;
76731;SDS011;65656;51.130;13.658;2023-02-15T03:57:59;41.40;;;25.48;;
76731;SDS011;65656;51.130;13.658;2023-02-15T04:02:04;40.45;;;27.92;;
76731;SDS011;65656;51.130;13.658;2023-02-15T04:06:16;42.25;;;30.67;;
76731;SDS011;65656;51.130;13.658;2023-02-15T04:10:18;49.45;;;44.35;;
76731;SDS011;65656;51.130;13.658;2023-02-15T04:14:20;36.17;;;25.42;;
76731;SDS011;65656;51.130;13.658;2023-02-15T04:18:22;38.75;;;31.75;;
76731;SDS011;65656;51.130;13.658;2023-02-15T04:22:23;37.05;;;33.08;;
76731;SDS011;65656;51.130;13.658;2023-02-15T04:26:25;37.42;;;32.00;;
76731;SDS011;65656;51.130;13.658;2023-02-15T04:30:28;43.80;;;28.45;;
76731;SDS011;65656;51.130;13.658;2023-02-15T04:34:29;36.47;;;26.25;;
76731;SDS011;65656;51.130;13.658;2023-02-15T04:38:31;39.28;;;27.50;;
76731;SDS011;65656;51.130;13.658;2023-02-15T04:42:32;33.40;;;24.85;;
76731;SDS011;65656;51.130;13.658;2023-02-15T04:46:35;37.38;;;25.58;;
76731;SDS011;65656;51.130;13.658;2023-02-15T04:50:37;34.72;;;21.35;;
76731;SDS011;65656;51.130;13.658;2023-02-15T04:54:39;34.50;;;25.42;;
76731;SDS011;65656;51.130;13.658;2023-02-15T04:58:40;34.75;;;24.60;;
76731;SDS011;65656;51.130;13.658;2023-02-15T05:02:43;34.63;;;24.88;;
76731;SDS011;65656;51.130;13.658;2023-02-15T05:06:45;38.38;;;26.17;;
76731;SDS011;65656;51.130;13.658;2023-02-15T05:10:47;36.05;;;27.83;;
76731;SDS011;65656;51.130;13.658;2023-02-15T05:14:48;34.45;;;24.63;;
76731;SDS011;65656;51.130;13.658;2023-02-15T05:18:51;33.33;;;25.05;;
76731;SDS011;65656;51.130;13.658;2023-02-15T05:22:53;34.15;;;27.60;;
76731;SDS011;65656;51.130;13.658;2023-02-15T05:26:54;33.67;;;22.58;;
76731;SDS011;65656;51.130;13.658;2023-02-15T05:30:59;26.15;;;20.30;;
76731;SDS011;65656;51.130;13.658;2023-02-15T05:35:05;33.88;;;26.42;;
76731;SDS011;65656;51.130;13.658;2023-02-15T05:39:07;32.33;;;24.75;;
76731;SDS011;65656;51.130;13.658;2023-02-15T05:43:09;34.85;;;27.60;;
76731;SDS011;65656;51.130;13.658;2023-02-15T05:47:10;30.25;;;23.80;;
76731;SDS011;65656;51.130;13.658;2023-02-15T05:51:13;32.15;;;22.33;;
76731;SDS011;65656;51.130;13.658;2023-02-15T05:55:15;31.80;;;26.85;;
76731;SDS011;65656;51.130;13.658;2023-02-15T05:59:16;28.77;;;24.55;;
76731;SDS011;65656;51.130;13.658;2023-02-15T06:03:18;32.97;;;24.65;;
76731;SDS011;65656;51.130;13.658;2023-02-15T06:07:21;29.08;;;20.73;;
76731;SDS011;65656;51.130;13.658;2023-02-15T06:11:23;32.00;;;26.23;;
76731;SDS011;65656;51.130;13.658;2023-02-15T06:15:24;35.42;;;24.98;;
76731;SDS011;65656;51.130;13.658;2023-02-15T06:19:26;33.30;;;24.45;;
76731;SDS011;65656;51.130;13.658;2023-02-15T06:23:29;37.55;;;31.73;;
76731;SDS011;65656;51.130;13.658;2023-02-15T06:27:30;32.78;;;19.55;;
76731;SDS011;65656;51.130;13.658;2023-02-15T06:31:32;25.20;;;21.80;;
76731;SDS011;65656;51.130;13.658;2023-02-15T06:35:33;32.33;;;27.38;;
76731;SDS011;65656;51.130;13.658;2023-02-15T06:39:36;34.00;;;26.75;;
76731;SDS011;65656;51.130;13.658;2023-02-15T06:43:38;44.28;;;40.40;;
76731;SDS011;65656;51.130;13.658;2023-02-15T06:47:41;31.08;;;27.60;;
76731;SDS011;65656;51.130;13.658;2023-02-15T06:51:42;33.85;;;30.35;;
76731;SDS011;65656;51.130;13.658;2023-02-15T06:55:45;22.77;;;20.25;;
76731;SDS011;65656;51.130;13.658;2023-02-15T06:59:47;32.35;;;25.15;;
76731;SDS011;65656;51.130;13.658;2023-02-15T07:03:48;34.75;;;31.15;;
76731;SDS011;65656;51.130;13.658;2023-02-15T07:07:50;31.38;;;28.30;;
76731;SDS011;65656;51.130;13.658;2023-02-15T07:11:53;25.35;;;21.08;;
76731;SDS011;65656;51.130;13.658;2023-02-15T07:15:54;23.42;;;18.02;;
76731;SDS011;65656;51.130;13.658;2023-02-15T07:19:56;31.15;;;28.15;;
76731;SDS011;65656;51.130;13.658;2023-02-15T07:23:57;38.85;;;34.85;;
76731;SDS011;65656;51.130;13.658;2023-02-15T07:28:01;27.58;;;23.00;;
76731;SDS011;65656;51.130;13.658;2023-02-15T07:32:04;25.33;;;20.92;;
76731;SDS011;65656;51.130;13.658;2023-02-15T07:36:06;25.48;;;17.88;;
76731;SDS011;65656;51.130;13.658;2023-02-15T07:40:08;24.10;;;19.80;;
76731;SDS011;65656;51.130;13.658;2023-02-15T07:44:12;18.65;;;16.45;;
76731;SDS011;65656;51.130;13.658;2023-02-15T07:48:14;26.83;;;21.95;;
76731;SDS011;65656;51.130;13.658;2023-02-15T07:52:15;28.42;;;23.50;;
76731;SDS011;65656;51.130;13.658;2023-02-15T07:56:17;23.00;;;18.05;;
76731;SDS011;65656;51.130;13.658;2023-02-15T08:00:20;25.00;;;22.55;;
76731;SDS011;65656;51.130;13.658;2023-02-15T08:04:23;25.73;;;23.25;;
76731;SDS011;65656;51.130;13.658;2023-02-15T08:08:25;19.33;;;13.32;;
76731;SDS011;65656;51.130;13.658;2023-02-15T08:12:27;20.80;;;18.33;;
76731;SDS011;65656;51.130;13.658;2023-02-15T08:16:31;20.23;;;17.70;;
76731;SDS011;65656;51.130;13.658;2023-02-15T08:20:34;22.58;;;20.33;;
76731;SDS011;65656;51.130;13.658;2023-02-15T08:24:36;18.92;;;15.93;;
76731;SDS011;65656;51.130;13.658;2023-02-15T08:28:38;19.13;;;17.10;;
76731;SDS011;65656;51.130;13.658;2023-02-15T08:32:41;19.38;;;17.13;;
76731;SDS011;65656;51.130;13.658;2023-02-15T08:36:43;26.20;;;20.98;;
76731;SDS011;65656;51.130;13.658;2023-02-15T08:40:45;22.90;;;20.60;;
76731;SDS011;65656;51.130;13.658;2023-02-15T08:44:46;15.93;;;12.25;;
76731;SDS011;65656;51.130;13.658;2023-02-15T08:48:51;22.95;;;16.33;;
76731;SDS011;65656;51.130;13.658;2023-02-15T08:52:53;18.98;;;12.93;;
76731;SDS011;65656;51.130;13.658;2023-02-15T08:56:56;20.88;;;18.92;;
76731;SDS011;65656;51.130;13.658;2023-02-15T09:00:58;19.60;;;13.75;;
76731;SDS011;65656;51.130;13.658;2023-02-15T09:05:02;23.40;;;21.13;;
76731;SDS011;65656;51.130;13.658;2023-02-15T09:09:04;20.35;;;18.25;;
76731;SDS011;65656;51.130;13.658;2023-02-15T09:13:06;21.70;;;19.65;;
76731;SDS011;65656;51.130;13.658;2023-02-15T09:17:07;17.75;;;15.45;;
76731;SDS011;65656;51.130;13.658;2023-02-15T09:21:12;24.20;;;22.08;;
76731;SDS011;65656;51.130;13.658;2023-02-15T09:25:14;17.55;;;14.27;;
76731;SDS011;65656;51.130;13.658;2023-02-15T09:29:16;18.80;;;14.95;;
76731;SDS011;65656;51.130;13.658;2023-02-15T09:33:19;17.05;;;15.35;;
76731;SDS011;65656;51.130;13.658;2023-02-15T09:37:22;16.15;;;14.13;;
76731;SDS011;65656;51.130;13.658;2023-02-15T09:46:06;16.92;;;14.88;;
76731;SDS011;65656;51.130;13.658;2023-02-15T09:50:20;18.63;;;16.85;;
76731;SDS011;65656;51.130;13.658;2023-02-15T09:54:46;16.23;;;12.25;;
76731;SDS011;65656;51.130;13.658;2023-02-15T09:58:58;16.95;;;14.50;;
76731;SDS011;65656;51.130;13.658;2023-02-15T10:07:42;17.75;;;15.60;;
76731;SDS011;65656;51.130;13.658;2023-02-15T10:12:08;22.50;;;20.25;;
76731;SDS011;65656;51.130;13.658;2023-02-15T10:16:19;17.30;;;14.05;;
76731;SDS011;65656;51.130;13.658;2023-02-15T10:20:29;17.48;;;14.75;;
76731;SDS011;65656;51.130;13.658;2023-02-15T10:24:42;20.38;;;15.73;;
76731;SDS011;65656;51.130;13.658;2023-02-15T10:28:55;19.10;;;13.70;;
76731;SDS011;65656;51.130;13.658;2023-02-15T10:33:02;22.42;;;15.75;;
76731;SDS011;65656;51.130;13.658;2023-02-15T10:37:29;19.02;;;13.40;;
76731;SDS011;65656;51.130;13.658;2023-02-15T10:41:42;21.17;;;18.95;;
76731;SDS011;65656;51.130;13.658;2023-02-15T10:49:59;21.30;;;19.17;;
76731;SDS011;65656;51.130;13.658;2023-02-15T10:54:23;22.08;;;17.70;;
76731;SDS011;65656;51.130;13.658;2023-02-15T10:58:35;19.95;;;15.07;;
76731;SDS011;65656;51.130;13.658;2023-02-15T11:02:59;20.10;;;12.63;;
76731;SDS011;65656;51.130;13.658;2023-02-15T11:07:12;18.90;;;13.05;;
76731;SDS011;65656;51.130;13.658;2023-02-15T11:11:20;24.17;;;17.75;;
76731;SDS011;65656;51.130;13.658;2023-02-15T11:15:25;20.88;;;18.73;;
76731;SDS011;65656;51.130;13.658;2023-02-15T11:19:33;22.55;;;19.25;;
76731;SDS011;65656;51.130;13.658;2023-02-15T11:23:40;19.33;;;15.52;;
76731;SDS011;65656;51.130;13.658;2023-02-15T11:27:44;19.25;;;13.13;;
76731;SDS011;65656;51.130;13.658;2023-02-15T11:31:49;17.83;;;10.93;;
76731;SDS011;65656;51.130;13.658;2023-02-15T11:35:57;21.05;;;18.95;;
76731;SDS011;65656;51.130;13.658;2023-02-15T11:40:03;17.83;;;14.05;;
76731;SDS011;65656;51.130;13.658;2023-02-15T11:44:19;19.33;;;14.55;;
76731;SDS011;65656;51.130;13.658;2023-02-15T11:48:24;18.33;;;13.13;;
76731;SDS011;65656;51.130;13.658;2023-02-15T11:52:27;20.40;;;15.00;;
76731;SDS011;65656;51.130;13.658;2023-02-15T11:56:30;21.50;;;17.60;;
76731;SDS011;65656;51.130;13.658;2023-02-15T12:00:33;20.40;;;15.95;;
76731;SDS011;65656;51.130;13.658;2023-02-15T12:04:38;20.27;;;14.25;;
76731;SDS011;65656;51.130;13.658;2023-02-15T12:08:46;16.92;;;10.68;;
76731;SDS011;65656;51.130;13.658;2023-02-15T12:13:08;18.40;;;15.00;;
76731;SDS011;65656;51.130;13.658;2023-02-15T12:17:12;13.75;;;11.80;;
76731;SDS011;65656;51.130;13.658;2023-02-15T12:21:15;14.10;;;11.23;;
76731;SDS011;65656;51.130;13.658;2023-02-15T12:25:30;15.05;;;10.65;;
76731;SDS011;65656;51.130;13.658;2023-02-15T12:29:39;15.32;;;11.85;;
76731;SDS011;65656;51.130;13.658;2023-02-15T12:33:42;16.20;;;12.68;;
76731;SDS011;65656;51.130;13.658;2023-02-15T12:37:51;19.60;;;17.13;;
76731;SDS011;65656;51.130;13.658;2023-02-15T12:42:04;18.80;;;16.83;;
76731;SDS011;65656;51.130;13.658;2023-02-15T12:46:19;19.88;;;16.63;;
76731;SDS011;65656;51.130;13.658;2023-02-15T12:50:23;17.90;;;15.70;;
76731;SDS011;65656;51.130;13.658;2023-02-15T12:54:27;18.77;;;12.15;;
76731;SDS011;65656;51.130;13.658;2023-02-15T12:58:33;15.57;;;10.85;;
76731;SDS011;65656;51.130;13.658;2023-02-15T13:02:37;20.15;;;18.10;;
76731;SDS011;65656;51.130;13.658;2023-02-15T13:06:46;15.90;;;14.25;;
76731;SDS011;65656;51.130;13.658;2023-02-15T13:10:53;15.38;;;12.27;;
76731;SDS011;65656;51.130;13.658;2023-02-15T13:14:58;20.85;;;18.80;;
76731;SDS011;65656;51.130;13.658;2023-02-15T13:19:02;16.83;;;12.70;;
76731;SDS011;65656;51.130;13.658;2023-02-15T13:23:06;15.77;;;13.32;;
76731;SDS011;65656;51.130;13.658;2023-02-15T13:27:28;16.75;;;15.10;;
76731;SDS011;65656;51.130;13.658;2023-02-15T13:31:34;16.33;;;14.15;;
76731;SDS011;65656;51.130;13.658;2023-02-15T13:35:38;20.60;;;15.90;;
76731;SDS011;65656;51.130;13.658;2023-02-15T13:39:44;14.55;;;10.43;;
76731;SDS011;65656;51.130;13.658;2023-02-15T13:43:52;17.40;;;13.73;;
76731;SDS011;65656;51.130;13.658;2023-02-15T13:48:06;18.52;;;16.63;;
76731;SDS011;65656;51.130;13.658;2023-02-15T13:52:18;18.17;;;16.25;;
76731;SDS011;65656;51.130;13.658;2023-02-15T13:56:23;16.45;;;13.77;;
76731;SDS011;65656;51.130;13.658;2023-02-15T14:00:34;16.38;;;12.50;;
76731;SDS011;65656;51.130;13.658;2023-02-15T14:04:52;19.70;;;17.70;;
76731;SDS011;65656;51.130;13.658;2023-02-15T14:09:08;18.92;;;15.77;;
76731;SDS011;65656;51.130;13.658;2023-02-15T14:17:47;18.77;;;15.82;;
76731;SDS011;65656;51.130;13.658;2023-02-15T14:21:59;22.27;;;12.05;;
76731;SDS011;65656;51.130;13.658;2023-02-15T14:26:03;21.08;;;18.92;;
76731;SDS011;65656;51.130;13.658;2023-02-15T14:30:13;19.02;;;12.70;;
76731;SDS011;65656;51.130;13.658;2023-02-15T14:34:21;21.63;;;17.75;;
76731;SDS011;65656;51.130;13.658;2023-02-15T14:38:30;24.20;;;15.98;;
76731;SDS011;65656;51.130;13.658;2023-02-15T14:42:44;20.48;;;13.15;;
76731;SDS011;65656;51.130;13.658;2023-02-15T14:46:55;19.85;;;13.48;;
76731;SDS011;65656;51.130;13.658;2023-02-15T14:51:03;17.80;;;15.02;;
76731;SDS011;65656;51.130;13.658;2023-02-15T14:55:07;19.02;;;16.80;;
76731;SDS011;65656;51.130;13.658;2023-02-15T14:59:16;19.08;;;14.20;;
76731;SDS011;65656;51.130;13.658;2023-02-15T15:03:20;20.35;;;15.23;;
76731;SDS011;65656;51.130;13.658;2023-02-15T15:07:26;19.92;;;16.83;;
76731;SDS011;65656;51.130;13.658;2023-02-15T15:11:47;22.23;;;17.92;;
76731;SDS011;65656;51.130;13.658;2023-02-15T15:15:50;24.13;;;15.10;;
76731;SDS011;65656;51.130;13.658;2023-02-15T15:19:57;27.20;;;21.05;;
76731;SDS011;65656;51.130;13.658;2023-02-15T15:24:00;26.88;;;19.88;;
76731;SDS011;65656;51.130;13.658;2023-02-15T15:28:03;25.77;;;18.92;;
76731;SDS011;65656;51.130;13.658;2023-02-15T15:32:04;24.30;;;19.95;;
76731;SDS011;65656;51.130;13.658;2023-02-15T15:36:20;25.33;;;17.60;;
76731;SDS011;65656;51.130;13.658;2023-02-15T15:40:40;24.02;;;16.90;;
76731;SDS011;65656;51.130;13.658;2023-02-15T15:44:57;32.92;;;29.70;;
76731;SDS011;65656;51.130;13.658;2023-02-15T15:49:19;25.42;;;18.27;;
76731;SDS011;65656;51.130;13.658;2023-02-15T15:53:23;28.77;;;20.55;;
76731;SDS011;65656;51.130;13.658;2023-02-15T15:57:27;33.30;;;28.00;;
76731;SDS011;65656;51.130;13.658;2023-02-15T16:01:34;31.00;;;22.15;;
76731;SDS011;65656;51.130;13.658;2023-02-15T16:05:39;27.50;;;21.90;;
76731;SDS011;65656;51.130;13.658;2023-02-15T16:09:41;26.92;;;18.50;;
76731;SDS011;65656;51.130;13.658;2023-02-15T16:13:54;26.25;;;17.40;;
76731;SDS011;65656;51.130;13.658;2023-02-15T16:22:00;32.28;;;22.45;;
76731;SDS011;65656;51.130;13.658;2023-02-15T16:26:04;27.50;;;21.95;;
76731;SDS011;65656;51.130;13.658;2023-02-15T16:30:17;28.17;;;20.17;;
76731;SDS011;65656;51.130;13.658;2023-02-15T16:34:24;27.20;;;19.55;;
76731;SDS011;65656;51.130;13.658;2023-02-15T16:38:30;30.83;;;21.50;;
76731;SDS011;65656;51.130;13.658;2023-02-15T16:43:03;28.98;;;17.95;;
76731;SDS011;65656;51.130;13.658;2023-02-15T16:47:07;25.38;;;20.83;;
76731;SDS011;65656;51.130;13.658;2023-02-15T16:51:22;30.88;;;21.52;;
76731;SDS011;65656;51.130;13.658;2023-02-15T16:55:30;29.48;;;20.67;;
76731;SDS011;65656;51.130;13.658;2023-02-15T16:59:38;35.30;;;21.58;;
76731;SDS011;65656;51.130;13.658;2023-02-15T17:03:41;28.90;;;21.90;;
76731;SDS011;65656;51.130;13.658;2023-02-15T17:07:50;27.77;;;20.00;;
76731;SDS011;65656;51.130;13.658;2023-02-15T17:12:04;25.88;;;20.58;;
76731;SDS011;65656;51.130;13.658;2023-02-15T17:16:20;34.03;;;26.27;;
76731;SDS011;65656;51.130;13.658;2023-02-15T17:20:27;31.27;;;25.20;;
76731;SDS011;65656;51.130;13.658;2023-02-15T17:24:35;35.50;;;24.73;;
76731;SDS011;65656;51.130;13.658;2023-02-15T17:28:38;42.63;;;38.35;;
76731;SDS011;65656;51.130;13.658;2023-02-15T17:32:51;33.97;;;24.65;;
76731;SDS011;65656;51.130;13.658;2023-02-15T17:36:57;39.03;;;24.17;;
76731;SDS011;65656;51.130;13.658;2023-02-15T17:41:01;33.33;;;24.70;;
76731;SDS011;65656;51.130;13.658;2023-02-15T17:45:03;35.28;;;25.33;;
76731;SDS011;65656;51.130;13.658;2023-02-15T17:49:04;40.22;;;27.75;;
76731;SDS011;65656;51.130;13.658;2023-02-15T17:53:07;36.17;;;24.58;;
76731;SDS011;65656;51.130;13.658;2023-02-15T17:57:12;32.42;;;28.38;;
76731;SDS011;65656;51.130;13.658;2023-02-15T18:01:16;34.63;;;27.95;;
76731;SDS011;65656;51.130;13.658;2023-02-15T18:05:20;35.15;;;25.00;;
76731;SDS011;65656;51.130;13.658;2023-02-15T18:09:22;42.40;;;26.27;;
76731;SDS011;65656;51.130;13.658;2023-02-15T18:13:25;35.97;;;26.27;;
76731;SDS011;65656;51.130;13.658;2023-02-15T18:17:28;32.05;;;24.27;;
76731;SDS011;65656;51.130;13.658;2023-02-15T18:21:34;37.92;;;28.90;;
76731;SDS011;65656;51.130;13.658;2023-02-15T18:25:36;34.83;;;25.40;;
76731;SDS011;65656;51.130;13.658;2023-02-15T18:29:39;30.58;;;25.33;;
76731;SDS011;65656;51.130;13.658;2023-02-15T18:33:42;39.85;;;25.50;;
76731;SDS011;65656;51.130;13.658;2023-02-15T18:37:45;34.60;;;23.48;;
76731;SDS011;65656;51.130;13.658;2023-02-15T18:41:47;35.80;;;25.98;;
76731;SDS011;65656;51.130;13.658;2023-02-15T18:45:50;36.75;;;22.77;;
76731;SDS011;65656;51.130;13.658;2023-02-15T18:49:52;38.50;;;30.73;;
76731;SDS011;65656;51.130;13.658;2023-02-15T18:53:53;42.70;;;25.35;;
76731;SDS011;65656;51.130;13.658;2023-02-15T18:57:55;39.63;;;30.77;;
76731;SDS011;65656;51.130;13.658;2023-02-15T19:01:58;32.80;;;21.63;;
76731;SDS011;65656;51.130;13.658;2023-02-15T19:06:00;33.90;;;23.75;;
76731;SDS011;65656;51.130;13.658;2023-02-15T19:10:02;35.70;;;22.33;;
76731;SDS011;65656;51.130;13.658;2023-02-15T19:14:08;36.50;;;25.40;;
76731;SDS011;65656;51.130;13.658;2023-02-15T19:18:21;36.78;;;24.15;;
76731;SDS011;65656;51.130;13.658;2023-02-15T19:22:24;38.13;;;27.25;;
76731;SDS011;65656;51.130;13.658;2023-02-15T19:26:27;36.05;;;25.00;;
76731;SDS011;65656;51.130;13.658;2023-02-15T19:30:45;40.10;;;24.38;;
76731;SDS011;65656;51.130;13.658;2023-02-15T19:34:48;42.85;;;30.10;;
76731;SDS011;65656;51.130;13.658;2023-02-15T19:38:50;31.80;;;24.27;;
76731;SDS011;65656;51.130;13.658;2023-02-15T19:42:54;33.58;;;25.02;;
76731;SDS011;65656;51.130;13.658;2023-02-15T19:46:56;43.80;;;38.50;;
76731;SDS011;65656;51.130;13.658;2023-02-15T19:50:58;33.97;;;26.63;;
76731;SDS011;65656;51.130;13.658;2023-02-15T19:55:00;35.42;;;22.25;;
76731;SDS011;65656;51.130;13.658;2023-02-15T19:59:01;36.88;;;23.48;;
76731;SDS011;65656;51.130;13.658;2023-02-15T20:03:03;35.15;;;22.58;;
76731;SDS011;65656;51.130;13.658;2023-02-15T20:07:12;36.50;;;27.77;;
76731;SDS011;65656;51.130;13.658;2023-02-15T20:11:20;38.13;;;27.45;;
76731;SDS011;65656;51.130;13.658;2023-02-15T20:15:22;43.92;;;39.47;;
76731;SDS011;65656;51.130;13.658;2023-02-15T20:19:25;41.67;;;28.27;;
76731;SDS011;65656;51.130;13.658;2023-02-15T20:23:29;36.03;;;24.92;;
76731;SDS011;65656;51.130;13.658;2023-02-15T20:27:32;51.65;;;46.33;;
76731;SDS011;65656;51.130;13.658;2023-02-15T20:31:33;37.17;;;27.05;;
76731;SDS011;65656;51.130;13.658;2023-02-15T20:35:35;39.58;;;27.60;;
76731;SDS011;65656;51.130;13.658;2023-02-15T20:39:39;43.05;;;34.50;;
76731;SDS011;65656;51.130;13.658;2023-02-15T20:43:40;40.03;;;26.13;;
76731;SDS011;65656;51.130;13.658;2023-02-15T20:47:42;45.83;;;32.25;;
76731;SDS011;65656;51.130;13.658;2023-02-15T20:51:43;42.00;;;27.83;;
76731;SDS011;65656;51.130;13.658;2023-02-15T20:55:46;36.00;;;30.15;;
76731;SDS011;65656;51.130;13.658;2023-02-15T20:59:48;34.60;;;23.20;;
76731;SDS011;65656;51.130;13.658;2023-02-15T21:03:49;39.13;;;34.13;;
76731;SDS011;65656;51.130;13.658;2023-02-15T21:07:52;33.72;;;23.00;;
76731;SDS011;65656;51.130;13.658;2023-02-15T21:11:56;35.35;;;31.67;;
76731;SDS011;65656;51.130;13.658;2023-02-15T21:15:59;42.92;;;26.92;;
76731;SDS011;65656;51.130;13.658;2023-02-15T21:20:01;33.67;;;22.05;;
76731;SDS011;65656;51.130;13.658;2023-02-15T21:24:03;39.95;;;29.75;;
76731;SDS011;65656;51.130;13.658;2023-02-15T21:28:09;38.70;;;26.23;;
76731;SDS011;65656;51.130;13.658;2023-02-15T21:32:17;43.10;;;32.45;;
76731;SDS011;65656;51.130;13.658;2023-02-15T21:36:19;36.80;;;25.35;;
76731;SDS011;65656;51.130;13.658;2023-02-15T21:40:24;41.08;;;30.00;;
76731;SDS011;65656;51.130;13.658;2023-02-15T21:44:29;35.85;;;23.40;;
76731;SDS011;65656;51.130;13.658;2023-02-15T21:48:30;41.65;;;26.40;;
76731;SDS011;65656;51.130;13.658;2023-02-15T21:52:32;35.85;;;23.27;;
76731;SDS011;65656;51.130;13.658;2023-02-15T21:56:34;39.70;;;28.40;;
76731;SDS011;65656;51.130;13.658;2023-02-15T22:00:36;40.05;;;31.17;;
76731;SDS011;65656;51.130;13.658;2023-02-15T22:04:38;38.88;;;27.13;;
76731;SDS011;65656;51.130;13.658;2023-02-15T22:08:39;30.88;;;21.02;;
76731;SDS011;65656;51.130;13.658;2023-02-15T22:12:41;33.17;;;28.73;;
76731;SDS011;65656;51.130;13.658;2023-02-15T22:16:45;38.25;;;27.35;;
76731;SDS011;65656;51.130;13.658;2023-02-15T22:20:46;35.05;;;27.05;;
76731;SDS011;65656;51.130;13.658;2023-02-15T22:24:48;33.15;;;23.50;;
76731;SDS011;65656;51.130;13.658;2023-02-15T22:28:50;40.30;;;31.10;;
76731;SDS011;65656;51.130;13.658;2023-02-15T22:32:53;37.42;;;32.25;;
76731;SDS011;65656;51.130;13.658;2023-02-15T22:36:55;35.08;;;24.75;;
76731;SDS011;65656;51.130;13.658;2023-02-15T22:40:59;36.40;;;28.23;;
76731;SDS011;65656;51.130;13.658;2023-02-15T22:45:03;35.47;;;29.15;;
76731;SDS011;65656;51.130;13.658;2023-02-15T22:49:10;35.55;;;25.58;;
76731;SDS011;65656;51.130;13.658;2023-02-15T22:53:13;29.02;;;20.80;;
76731;SDS011;65656;51.130;13.658;2023-02-15T22:57:15;34.42;;;26.80;;
76731;SDS011;65656;51.130;13.658;2023-02-15T23:01:21;33.40;;;25.48;;
76731;SDS011;65656;51.130;13.658;2023-02-15T23:05:27;30.13;;;21.85;;
76731;SDS011;65656;51.130;13.658;2023-02-15T23:09:29;37.15;;;33.55;;
76731;SDS011;65656;51.130;13.658;2023-02-15T23:13:31;39.92;;;36.10;;
76731;SDS011;65656;51.130;13.658;2023-02-15T23:17:33;32.13;;;28.88;;
76731;SDS011;65656;51.130;13.658;2023-02-15T23:21:36;33.17;;;24.02;;
76731;SDS011;65656;51.130;13.658;2023-02-15T23:25:37;39.65;;;29.02;;
76731;SDS011;65656;51.130;13.658;2023-02-15T23:29:39;27.52;;;22.42;;
76731;SDS011;65656;51.130;13.658;2023-02-15T23:33:40;38.22;;;28.05;;
76731;SDS011;65656;51.130;13.658;2023-02-15T23:37:43;32.03;;;24.15;;
76731;SDS011;65656;51.130;13.658;2023-02-15T23:41:45;30.63;;;21.88;;
76731;SDS011;65656;51.130;13.658;2023-02-15T23:45:47;33.05;;;22.95;;
76731;SDS011;65656;51.130;13.658;2023-02-15T23:49:48;39.90;;;32.95;;
76731;SDS011;65656;51.130;13.658;2023-02-15T23:53:51;30.23;;;22.17;;
76731;SDS011;65656;51.130;13.658;2023-02-15T23:57:53;33.97;;;23.25;;
